Center Moriches, New York
Current Conditions -  °F | °C
As of 4:56 PM on Monday 22 Dec 2014 (Local Time) from KHWV Reporting Station
Overcast Overcast  
Wind Chill: 43°   Ceiling: 2800
Heat Index: 45°   Visibility: 10mi
Dew Point: 40°   Wind: 5mph
Humidity: 82%   Direction: NA
Pressure: 30.25"   Gusts: NA
Location:  40.8°N, 72.79°W
Report Text: KHWV 222156Z AUTO VRB04KT 10SM FEW012 OVC028 07/04 A3025 RMK AO2 SLP244 T00720044 TSNO
Loading
Personal Weather Stations






























Interactive Weather Map New forecast layout! Learn more

10-Day Weather Forecast

Advertisements
Track Severe Weather on mobile